createdAt,value
2022-07-26T00:01:37.051Z,96971.34
2022-07-26T00:06:39.329Z,96976.84
2022-07-26T00:11:41.124Z,96968.91
2022-07-26T00:16:43.402Z,96969.72
2022-07-26T00:21:45.357Z,96967.28
2022-07-26T00:26:47.206Z,96967.53
2022-07-26T00:31:49.162Z,96979.88
2022-07-26T00:36:51.014Z,96980.47
2022-07-26T00:41:52.862Z,96988.59
2022-07-26T00:46:54.927Z,96970.69
2022-07-26T00:51:56.639Z,96971.28
2022-07-26T00:56:58.760Z,96961.06
2022-07-26T01:02:01.500Z,96949.22
2022-07-26T01:07:14.751Z,96952.22
2022-07-26T01:12:18.212Z,96957.56
2022-07-26T01:17:19.983Z,96953.19
2022-07-26T01:22:21.871Z,96950.88
2022-07-26T01:27:24.143Z,96944.69
2022-07-26T01:32:25.925Z,96940.53
2022-07-26T01:37:27.576Z,96952.03
2022-07-26T01:42:29.310Z,96955.88
2022-07-26T01:47:31.175Z,96945.06
2022-07-26T01:52:33.255Z,96941.00
2022-07-26T01:57:35.267Z,96936.34
2022-07-26T02:02:37.228Z,96933.19
2022-07-26T02:07:43.842Z,96923.44
2022-07-26T02:12:46.394Z,96916.69
2022-07-26T02:17:49.640Z,96926.72
2022-07-26T02:22:51.351Z,96915.91
2022-07-26T02:27:53.311Z,96910.66
2022-07-26T02:32:55.014Z,96917.28
2022-07-26T02:38:01.499Z,96912.75
2022-07-26T02:43:05.068Z,96910.41
2022-07-26T02:48:07.461Z,96920.19
2022-07-26T02:53:09.178Z,96922.53
2022-07-26T02:58:10.861Z,96929.47
2022-07-26T03:03:14.218Z,96929.94
2022-07-26T03:08:16.381Z,96934.81
2022-07-26T03:13:18.091Z,96924.94
2022-07-26T03:18:19.829Z,96935.75
2022-07-26T03:23:21.539Z,96928.31
2022-07-26T03:28:23.253Z,96944.22
2022-07-26T03:33:25.321Z,96940.50
2022-07-26T03:38:26.995Z,96951.81
2022-07-26T03:43:29.100Z,96953.19
2022-07-26T03:48:32.584Z,96956.00
2022-07-26T03:53:34.598Z,96957.81
2022-07-26T03:58:36.802Z,96967.00
2022-07-26T04:03:40.024Z,96956.69
2022-07-26T04:08:46.259Z,96966.19
2022-07-26T04:13:47.897Z,96969.31
2022-07-26T04:18:49.807Z,96965.50
2022-07-26T04:23:51.943Z,96971.53
2022-07-26T04:28:53.786Z,96976.28
2022-07-26T04:33:55.449Z,96971.31
2022-07-26T04:38:57.136Z,96969.22
2022-07-26T04:43:58.999Z,96973.16
2022-07-26T04:49:00.874Z,96979.19
2022-07-26T04:54:02.692Z,96978.63
2022-07-26T04:59:04.409Z,96982.69
2022-07-26T05:04:06.482Z,96982.69
2022-07-26T05:09:08.919Z,96980.84
2022-07-26T05:14:10.962Z,96982.72
2022-07-26T05:19:13.848Z,96992.00
2022-07-26T05:24:15.434Z,96989.19
2022-07-26T05:29:17.158Z,96990.56
2022-07-26T05:34:18.960Z,97002.75
2022-07-26T05:39:20.877Z,96996.25
2022-07-26T05:44:24.536Z,96992.88
2022-07-26T05:49:28.286Z,96994.50
2022-07-26T05:54:42.323Z,97006.56
2022-07-26T05:59:44.063Z,97002.66
2022-07-26T06:04:47.611Z,96997.88
2022-07-26T06:09:49.656Z,97004.97
2022-07-26T06:14:51.381Z,97002.66
2022-07-26T06:19:53.103Z,96997.78
2022-07-26T06:24:54.868Z,96999.59
2022-07-26T06:29:56.547Z,97006.81
2022-07-26T06:34:58.295Z,97007.97
2022-07-26T06:40:00.028Z,97011.25
2022-07-26T06:45:02.729Z,97019.84
2022-07-26T06:50:05.121Z,97020.81
2022-07-26T06:55:08.902Z,97021.38
2022-07-26T07:00:14.842Z,97013.94
2022-07-26T07:05:17.050Z,97022.44
2022-07-26T07:10:19.358Z,97003.63
2022-07-26T07:15:25.464Z,97022.25
2022-07-26T07:20:28.351Z,97030.59
2022-07-26T07:25:30.728Z,97027.81
2022-07-26T07:30:32.934Z,97024.00
2022-07-26T07:35:35.339Z,97030.66
2022-07-26T07:40:37.814Z,97030.66
2022-07-26T07:45:39.735Z,97034.81
2022-07-26T07:50:41.467Z,97021.81
2022-07-26T07:55:51.471Z,97022.50
2022-07-26T08:00:57.127Z,97022.50
2022-07-26T08:05:59.171Z,97031.09
2022-07-26T08:11:00.968Z,97039.94
2022-07-26T08:16:02.984Z,97041.91
2022-07-26T08:21:08.226Z,97037.84
2022-07-26T08:26:10.603Z,97037.78
2022-07-26T08:31:12.431Z,97035.22
2022-07-26T08:36:17.611Z,97044.84
2022-07-26T08:41:19.422Z,97036.75
2022-07-26T08:46:26.843Z,97041.75
2022-07-26T08:51:31.319Z,97049.66
2022-07-26T08:56:34.577Z,97058.50
2022-07-26T09:01:50.616Z,97044.31
2022-07-26T09:07:11.438Z,97026.28
2022-07-26T09:12:18.665Z,97037.41
2022-07-26T09:17:25.255Z,97052.94
2022-07-26T09:22:27.071Z,97054.72
2022-07-26T09:27:39.059Z,97052.69
2022-07-26T09:32:40.826Z,97056.69
2022-07-26T09:37:46.906Z,97056.56
2022-07-26T09:42:57.730Z,97048.63
2022-07-26T09:48:00.518Z,97041.66
2022-07-26T09:53:13.096Z,97044.97
2022-07-26T09:58:16.254Z,97042.47
2022-07-26T10:03:17.981Z,97044.56
2022-07-26T10:08:20.125Z,97045.91
2022-07-26T10:13:23.138Z,97037.88
2022-07-26T10:18:37.987Z,97034.44
2022-07-26T10:23:50.482Z,97031.97
2022-07-26T10:28:52.288Z,97014.41
2022-07-26T10:33:55.456Z,97025.75
2022-07-26T10:39:03.966Z,97028.56
2022-07-26T10:44:20.425Z,97019.19
2022-07-26T10:49:29.293Z,97020.13
2022-07-26T10:54:31.966Z,97018.34
2022-07-26T10:59:54.690Z,97027.38
2022-07-26T11:05:01.008Z,97019.25
2022-07-26T11:10:02.905Z,97016.00
2022-07-26T11:15:16.984Z,97013.53
2022-07-26T11:20:29.547Z,97011.59
2022-07-26T11:25:31.949Z,97003.81
2022-07-26T11:30:33.778Z,97005.00
2022-07-26T11:35:35.570Z,97007.13
2022-07-26T11:40:43.350Z,96981.94
2022-07-26T11:45:52.346Z,96978.78
2022-07-26T11:51:09.342Z,96978.94
2022-07-26T11:56:22.935Z,96983.28
2022-07-26T12:01:27.640Z,96982.47
2022-07-26T12:06:30.281Z,96972.25
2022-07-26T12:11:41.627Z,96971.19
2022-07-26T12:16:45.692Z,96959.94
2022-07-26T12:21:52.621Z,96953.31
2022-07-26T12:27:07.265Z,96961.97
2022-07-26T12:32:12.749Z,96955.44
2022-07-26T12:37:17.448Z,96944.75
2022-07-26T12:42:34.330Z,96947.13
2022-07-26T12:47:38.770Z,96949.94
2022-07-26T12:52:41.671Z,96942.94
2022-07-26T12:57:47.229Z,96937.25
2022-07-26T13:02:49.360Z,96931.03
2022-07-26T13:07:55.449Z,96944.91
2022-07-26T13:12:57.244Z,96932.47
2022-07-26T13:17:59.584Z,96928.84
2022-07-26T13:23:02.500Z,96928.25
2022-07-26T13:28:04.334Z,96942.59
2022-07-26T13:33:06.670Z,96937.69
2022-07-26T13:38:11.722Z,96929.69
2022-07-26T13:43:14.215Z,96930.69
2022-07-26T13:48:15.896Z,96930.44
2022-07-26T13:53:17.715Z,96910.03
2022-07-26T13:58:21.691Z,96918.34
2022-07-26T14:03:23.586Z,96917.38
2022-07-26T14:08:25.463Z,96920.16
2022-07-26T14:13:27.289Z,96911.38
2022-07-26T14:18:28.999Z,96926.59
2022-07-26T14:23:30.799Z,96916.66
2022-07-26T14:28:32.538Z,96925.75
2022-07-26T14:33:34.400Z,96922.59
2022-07-26T14:38:36.962Z,96920.03
2022-07-26T14:43:38.721Z,96919.59
2022-07-26T14:48:53.942Z,96923.03
2022-07-26T14:53:56.531Z,96926.06
2022-07-26T14:58:58.269Z,96925.84
2022-07-26T15:03:59.984Z,96908.44
2022-07-26T15:09:01.888Z,96919.81
2022-07-26T15:14:06.503Z,96917.56
2022-07-26T15:19:08.373Z,96923.94
2022-07-26T15:24:11.070Z,96916.81
2022-07-26T15:29:13.080Z,96915.06
2022-07-26T15:34:15.707Z,96907.53
2022-07-26T15:39:18.390Z,96908.28
2022-07-26T15:44:25.497Z,96914.56
2022-07-26T15:49:27.917Z,96915.34
2022-07-26T15:54:30.024Z,96906.97
2022-07-26T15:59:31.706Z,96903.59
2022-07-26T16:04:33.858Z,96907.00
2022-07-26T16:09:35.445Z,96911.88
2022-07-26T16:14:37.458Z,96905.28
2022-07-26T16:19:39.147Z,96910.59
2022-07-26T16:24:40.911Z,96917.44
2022-07-26T16:29:42.714Z,96900.25
2022-07-26T16:34:44.499Z,96901.53
2022-07-26T16:39:46.324Z,96904.50
2022-07-26T16:44:48.286Z,96909.25
2022-07-26T16:49:50.174Z,96899.63
2022-07-26T16:54:51.856Z,96906.13
2022-07-26T16:59:53.562Z,96907.63
2022-07-26T17:04:57.165Z,96906.41
2022-07-26T17:09:58.863Z,96918.00
2022-07-26T17:15:01.002Z,96921.97
2022-07-26T17:20:04.075Z,96917.03
2022-07-26T17:25:07.063Z,96923.53
2022-07-26T17:30:09.492Z,96912.19
2022-07-26T17:35:11.341Z,96912.84
2022-07-26T17:40:13.317Z,96923.50
2022-07-26T17:45:15.522Z,96922.91
2022-07-26T17:55:39.192Z,96927.84
2022-07-26T18:00:41.715Z,96929.53
2022-07-26T18:05:43.822Z,96927.84
2022-07-26T18:10:50.887Z,96926.59
2022-07-26T18:15:53.680Z,96927.66
2022-07-26T18:20:55.497Z,96938.28
2022-07-26T18:25:58.070Z,96940.50
2022-07-26T18:30:59.813Z,96939.03
2022-07-26T18:36:01.654Z,96942.47
2022-07-26T18:41:03.746Z,96933.09
2022-07-26T18:46:06.471Z,96937.34
2022-07-26T18:51:08.426Z,96939.25
2022-07-26T18:56:10.284Z,96938.41
2022-07-26T19:01:12.340Z,96944.81
2022-07-26T19:06:14.274Z,96958.75
2022-07-26T19:11:16.006Z,96957.63
2022-07-26T19:16:17.819Z,96956.88
2022-07-26T19:21:21.027Z,96972.06
2022-07-26T19:26:23.821Z,96975.22
2022-07-26T19:31:25.961Z,96978.63
2022-07-26T19:36:27.740Z,96987.59
2022-07-26T19:41:29.963Z,96993.19
2022-07-26T19:46:31.676Z,96990.75
2022-07-26T19:51:33.510Z,96989.50
2022-07-26T19:56:35.435Z,96996.44
2022-07-26T20:01:37.135Z,96989.81
2022-07-26T20:06:38.835Z,96999.44
2022-07-26T20:11:41.245Z,97002.00
2022-07-26T20:16:43.014Z,97010.59
2022-07-26T20:21:44.938Z,97007.59
2022-07-26T20:26:46.719Z,97014.88
2022-07-26T20:31:48.562Z,97020.06
2022-07-26T20:36:50.297Z,97018.09
2022-07-26T20:41:52.029Z,97020.84
2022-07-26T20:46:54.452Z,97011.03
2022-07-26T20:51:56.682Z,97009.34
2022-07-26T20:56:58.554Z,97017.09
2022-07-26T21:02:02.154Z,97013.38
2022-07-26T21:07:03.975Z,97018.09
2022-07-26T21:12:05.957Z,97018.16
2022-07-26T21:17:11.647Z,97020.34
2022-07-26T21:22:14.160Z,97022.38
2022-07-26T21:27:15.866Z,97019.84
2022-07-26T21:32:17.611Z,97021.00
2022-07-26T21:37:19.306Z,97034.47
2022-07-26T21:42:20.996Z,97036.53
2022-07-26T21:47:28.986Z,97042.53
2022-07-26T21:52:30.693Z,97041.03
2022-07-26T21:57:32.469Z,97044.19
2022-07-26T22:02:34.927Z,97038.38
2022-07-26T22:07:36.713Z,97046.09
2022-07-26T22:12:38.535Z,97045.78
2022-07-26T22:17:40.413Z,97046.09
2022-07-26T22:22:42.073Z,97050.72
2022-07-26T22:27:43.777Z,97056.56
2022-07-26T22:32:45.492Z,97045.16
2022-07-26T22:37:47.174Z,97043.00
2022-07-26T22:42:49.945Z,97040.59
2022-07-26T22:47:55.705Z,97047.44
2022-07-26T22:53:00.922Z,97037.00
2022-07-26T22:58:02.743Z,97036.50
2022-07-26T23:03:05.058Z,97034.88
2022-07-26T23:08:44.219Z,97023.75
2022-07-26T23:13:35.462Z,97013.31
2022-07-26T23:18:37.137Z,97011.50
2022-07-26T23:23:38.902Z,97019.66
2022-07-26T23:28:40.878Z,97012.13
2022-07-26T23:33:51.821Z,97014.78
2022-07-26T23:38:56.589Z,97002.03
2022-07-26T23:43:58.327Z,97018.47
2022-07-26T23:49:00.204Z,97027.94
2022-07-26T23:54:03.017Z,97026.81
2022-07-26T23:59:04.795Z,97022.91
